Time;durP1;ratioP1;P1;durP2;ratioP2;P2;SDS_P1;SDS_P2;PMS_P1;PMS_P2;Temp;Humidity;BMP_temperature;BMP_pressure;BME280_temperature;BME280_humidity;BME280_pressure;Samples;Min_cycle;Max_cycle;Signal;HPM_P1;HPM_P2
2021/06/28 00:01:16;;;;;;;1.35;0.80;;;47.10;13.80;;;;;;5096292;28;20051;-65
2021/06/28 00:03:45;;;;;;;10.95;9.23;;;47.10;15.60;;;;;;5087993;28;20081;-65
2021/06/28 00:06:12;;;;;;;5.65;1.00;;;47.10;10.80;;;;;;5099117;28;20043;-66
2021/06/28 00:08:40;;;;;;;4.45;1.00;;;47.20;12.60;;;;;;5098761;28;20449;-65
2021/06/28 00:11:08;;;;;;;4.80;0.80;;;47.30;10.50;;;;;;5095435;28;20036;-65
2021/06/28 00:13:39;;;;;;;5.38;1.17;;;47.30;10.30;;;;;;5096815;28;20027;-64
2021/06/28 00:16:06;;;;;;;2.35;0.90;;;47.30;10.40;;;;;;5093462;28;20020;-66
2021/06/28 00:18:33;;;;;;;4.50;1.02;;;47.20;9.40;;;;;;5095704;28;20464;-65
2021/06/28 00:21:00;;;;;;;2.80;0.80;;;47.40;10.80;;;;;;5093615;28;20020;-65
2021/06/28 00:23:27;;;;;;;4.07;0.80;;;47.20;15.30;;;;;;5098098;28;20024;-66
2021/06/28 00:25:54;;;;;;;3.28;1.10;;;47.30;10.70;;;;;;5096239;28;20561;-65
2021/06/28 00:28:21;;;;;;;3.63;1.00;;;47.10;10.80;;;;;;5096546;28;20180;-65
2021/06/28 00:30:48;;;;;;;5.47;0.93;;;47.00;10.40;;;;;;5101305;28;20083;-65
2021/06/28 00:33:17;;;;;;;4.40;1.10;;;47.30;11.10;;;;;;5090664;28;20021;-65
2021/06/28 00:35:45;;;;;;;3.17;1.00;;;47.10;10.20;;;;;;5093686;28;20111;-65
2021/06/28 00:38:12;;;;;;;4.72;1.05;;;47.00;10.40;;;;;;5097779;28;20024;-66
2021/06/28 00:40:40;;;;;;;2.60;0.80;;;47.00;10.60;;;;;;5099717;28;20066;-66
2021/06/28 00:43:08;;;;;;;3.45;0.75;;;46.90;10.60;;;;;;5099180;28;20134;-66
2021/06/28 00:45:40;;;;;;;4.13;0.80;;;48.00;10.80;;;;;;5089637;28;20044;-64
2021/06/28 00:48:11;;;;;;;5.55;0.88;;;46.60;10.40;;;;;;5099227;28;20053;-66
2021/06/28 00:50:45;;;;;;;4.25;0.93;;;46.90;10.40;;;;;;5091396;28;20055;-65
2021/06/28 00:53:13;;;;;;;4.20;1.20;;;46.90;10.60;;;;;;5093003;28;20196;-65
2021/06/28 00:55:42;;;;;;;1.40;0.98;;;46.90;10.40;;;;;;5096224;28;20154;-64
2021/06/28 00:58:09;;;;;;;6.47;0.88;;;46.80;11.00;;;;;;5090354;28;20519;-66
2021/06/28 01:00:37;;;;;;;3.30;0.90;;;46.60;10.40;;;;;;5090217;28;20463;-63
2021/06/28 01:03:04;;;;;;;3.70;1.00;;;46.60;10.50;;;;;;5089967;28;20062;-64
2021/06/28 01:05:34;;;;;;;2.65;1.00;;;46.60;11.10;;;;;;5075356;28;20051;-64
2021/06/28 01:08:03;;;;;;;7.00;0.95;;;46.50;10.90;;;;;;5091165;28;20055;-65
2021/06/28 01:10:30;;;;;;;3.72;0.80;;;46.50;10.40;;;;;;5099577;27;20058;-64
2021/06/28 01:12:57;;;;;;;2.15;0.80;;;;;;;;;;5089469;28;20185;-64
2021/06/28 01:15:24;;;;;;;2.15;0.80;;;46.40;9.90;;;;;;5091459;28;20130;-65
2021/06/28 01:17:54;;;;;;;3.65;1.05;;;46.40;10.20;;;;;;5093486;28;20620;-64
2021/06/28 01:20:23;;;;;;;5.97;1.17;;;46.40;11.50;;;;;;5092137;28;20140;-64
2021/06/28 01:22:54;;;;;;;2.85;0.80;;;46.30;11.60;;;;;;5098776;28;20390;-65
2021/06/28 01:25:23;;;;;;;3.53;1.10;;;46.10;10.80;;;;;;5094410;28;20168;-64
2021/06/28 01:27:50;;;;;;;3.90;1.00;;;46.10;11.40;;;;;;5097349;28;20059;-65
2021/06/28 01:30:26;;;;;;;3.42;1.10;;;46.00;11.00;;;;;;5099894;28;20093;-64
2021/06/28 01:32:53;;;;;;;8.25;1.17;;;45.90;11.50;;;;;;5091197;28;20082;-64
2021/06/28 01:35:19;;;;;;;4.55;1.05;;;45.80;12.10;;;;;;5088553;28;20031;-65
2021/06/28 01:37:46;;;;;;;4.00;1.13;;;45.60;11.60;;;;;;5094176;28;20494;-63
2021/06/28 01:40:15;;;;;;;4.78;1.05;;;45.80;42.90;;;;;;5093382;28;20068;-65
2021/06/28 01:42:43;;;;;;;5.20;1.20;;;45.30;14.00;;;;;;5093375;28;20024;-64
2021/06/28 01:45:15;;;;;;;3.35;1.10;;;45.30;11.50;;;;;;5092365;28;20482;-64
2021/06/28 01:47:42;;;;;;;2.33;1.13;;;45.20;11.40;;;;;;5095852;28;20070;-64
2021/06/28 01:50:11;;;;;;;4.88;1.58;;;45.30;11.40;;;;;;5093874;28;20085;-64
2021/06/28 01:52:38;;;;;;;6.28;1.13;;;45.20;11.20;;;;;;5097293;28;20070;-64
2021/06/28 01:55:08;;;;;;;10.30;1.10;;;45.10;11.00;;;;;;5094082;28;20074;-65
2021/06/28 01:58:00;;;;;;;5.70;1.05;;;44.90;11.60;;;;;;5088241;28;20434;-65
2021/06/28 02:00:32;;;;;;;3.90;1.25;;;44.90;11.90;;;;;;5098568;28;20072;-64
2021/06/28 02:03:07;;;;;;;4.05;1.00;;;44.70;11.80;;;;;;5094497;28;20383;-65
2021/06/28 02:05:36;;;;;;;4.78;1.10;;;44.60;11.50;;;;;;5089523;28;20082;-65
2021/06/28 02:08:05;;;;;;;8.60;1.33;;;44.60;12.20;;;;;;5090976;28;20107;-64
2021/06/28 02:10:31;;;;;;;10.63;1.23;;;44.40;12.20;;;;;;5090250;28;20428;-65
2021/06/28 02:12:58;;;;;;;6.43;1.10;;;44.40;12.10;;;;;;5098266;28;20099;-65
2021/06/28 02:15:29;;;;;;;4.75;1.23;;;44.30;12.20;;;;;;5096947;28;20539;-65
2021/06/28 02:17:57;;;;;;;4.20;1.20;;;44.20;12.50;;;;;;5094606;28;20024;-63
2021/06/28 02:20:24;;;;;;;3.38;1.00;;;44.10;12.50;;;;;;5090977;28;20515;-66
2021/06/28 02:22:52;;;;;;;3.97;1.40;;;43.90;12.60;;;;;;5092386;28;20055;-66
2021/06/28 02:25:20;;;;;;;4.18;1.50;;;43.80;12.80;;;;;;5097998;28;20540;-67
2021/06/28 02:27:47;;;;;;;5.25;1.50;;;43.70;13.70;;;;;;5091759;28;20038;-62
2021/06/28 02:30:17;;;;;;;6.57;1.30;;;43.20;13.50;;;;;;5090668;28;20124;-63
2021/06/28 02:32:45;;;;;;;10.02;1.48;;;43.40;14.00;;;;;;5091239;28;20046;-64
2021/06/28 02:35:14;;;;;;;7.30;1.17;;;43.30;14.20;;;;;;5087475;28;21059;-63
2021/06/28 02:37:41;;;;;;;6.97;1.40;;;43.00;14.10;;;;;;5096559;28;20053;-63
2021/06/28 02:40:11;;;;;;;15.70;5.85;;;42.90;14.50;;;;;;5091649;28;20039;-64
2021/06/28 02:42:38;;;;;;;12.38;6.05;;;42.80;14.80;;;;;;5096628;28;20056;-64
2021/06/28 02:45:07;;;;;;;21.63;6.40;;;42.60;14.80;;;;;;5092536;28;20079;-66
2021/06/28 02:47:34;;;;;;;12.90;7.32;;;42.50;15.10;;;;;;5095218;28;20193;-65
2021/06/28 02:50:10;;;;;;;8.30;3.95;;;42.20;15.40;;;;;;5093142;28;20078;-64
2021/06/28 02:52:36;;;;;;;6.35;2.30;;;41.70;46.10;;;;;;5094129;28;20087;-65
2021/06/28 02:55:04;;;;;;;5.70;2.05;;;41.60;43.90;;;;;;5096079;28;20096;-65
2021/06/28 02:57:31;;;;;;;8.45;2.50;;;;;;;;;;5096961;28;20028;-64
2021/06/28 02:59:58;;;;;;;14.52;3.00;;;;;;;;;;5096482;28;20038;-64
2021/06/28 03:02:24;;;;;;;15.63;3.35;;;41.00;16.60;;;;;;5092784;28;20612;-64
2021/06/28 03:04:51;;;;;;;24.20;3.70;;;41.10;22.80;;;;;;5095896;28;20078;-65
2021/06/28 03:07:19;;;;;;;28.25;3.85;;;40.80;16.60;;;;;;5095371;28;20054;-65
2021/06/28 03:09:45;;;;;;;27.08;4.22;;;40.50;48.90;;;;;;5094925;28;20032;-64
2021/06/28 03:12:12;;;;;;;28.40;4.82;;;40.90;48.50;;;;;;5093650;28;20056;-64
2021/06/28 03:14:40;;;;;;;31.52;5.00;;;41.00;20.40;;;;;;5091618;28;20020;-64
2021/06/28 03:17:06;;;;;;;27.40;4.32;;;40.80;20.00;;;;;;5093254;28;20032;-64
2021/06/28 03:19:33;;;;;;;32.67;4.40;;;;;;;;;;5091529;28;20020;-64
2021/06/28 03:22:00;;;;;;;23.88;3.33;;;40.60;17.10;;;;;;5093778;28;20027;-64
2021/06/28 03:24:26;;;;;;;22.45;3.05;;;40.60;17.50;;;;;;5098420;28;20485;-64
2021/06/28 03:26:52;;;;;;;31.73;3.03;;;40.50;48.50;;;;;;5096781;28;20594;-63
2021/06/28 03:29:19;;;;;;;13.75;2.97;;;40.60;23.70;;;;;;5099825;28;20107;-64
2021/06/28 03:31:45;;;;;;;17.02;2.90;;;40.20;52.10;;;;;;5103040;28;20109;-65
2021/06/28 03:34:12;;;;;;;23.25;3.05;;;40.40;23.00;;;;;;5098541;28;20020;-65
2021/06/28 03:36:39;;;;;;;21.13;3.72;;;;;;;;;;5098984;28;20095;-63
2021/06/28 03:39:05;;;;;;;17.70;3.85;;;;;;;;;;5100752;28;20028;-65
2021/06/28 03:41:32;;;;;;;30.02;3.88;;;40.20;29.00;;;;;;5097996;28;20028;-64
2021/06/28 03:43:58;;;;;;;28.65;4.13;;;40.00;18.50;;;;;;5095550;28;20103;-65
2021/06/28 03:46:25;;;;;;;22.35;3.72;;;39.80;18.30;;;;;;5093972;28;20096;-66
2021/06/28 03:48:51;;;;;;;23.60;4.45;;;39.80;18.70;;;;;;5097162;28;20087;-63
2021/06/28 03:51:18;;;;;;;36.28;5.30;;;39.50;36.20;;;;;;5100848;28;20047;-64
2021/06/28 03:53:44;;;;;;;40.20;5.13;;;39.40;18.70;;;;;;5113882;27;20073;-63
2021/06/28 03:56:13;;;;;;;43.53;5.28;;;39.40;19.10;;;;;;5099709;28;20080;-65
2021/06/28 03:58:43;;;;;;;45.83;5.80;;;39.40;19.40;;;;;;5097639;28;20080;-64
2021/06/28 04:01:09;;;;;;;53.97;5.60;;;39.30;19.40;;;;;;5096271;28;20076;-63
2021/06/28 04:03:37;;;;;;;36.83;5.40;;;39.20;19.40;;;;;;5095872;28;20100;-64
2021/06/28 04:06:05;;;;;;;45.22;5.50;;;39.20;19.40;;;;;;5098648;28;20160;-64
2021/06/28 04:08:33;;;;;;;41.67;5.78;;;39.10;19.50;;;;;;5096626;28;20541;-64
2021/06/28 04:11:00;;;;;;;36.22;5.43;;;39.10;19.80;;;;;;5098797;28;20537;-65
2021/06/28 04:13:27;;;;;;;41.75;5.72;;;39.00;19.90;;;;;;5099667;28;20151;-64
2021/06/28 04:15:53;;;;;;;39.45;6.03;;;38.90;19.90;;;;;;5117708;27;20083;-64
2021/06/28 04:18:20;;;;;;;39.75;5.20;;;38.80;19.90;;;;;;5099747;28;20138;-65
2021/06/28 04:20:48;;;;;;;40.40;4.47;;;38.70;20.00;;;;;;5096922;28;20069;-64
2021/06/28 04:23:14;;;;;;;34.72;5.18;;;38.60;20.10;;;;;;5096294;28;20092;-64
2021/06/28 04:25:41;;;;;;;31.10;4.80;;;38.50;20.20;;;;;;5094225;28;20563;-65
2021/06/28 04:28:08;;;;;;;22.52;4.35;;;38.40;20.30;;;;;;5092534;28;20537;-65
2021/06/28 04:30:34;;;;;;;27.70;3.88;;;38.40;20.20;;;;;;5096861;28;20068;-64
2021/06/28 04:33:01;;;;;;;26.20;3.85;;;38.40;20.40;;;;;;5092915;28;20425;-64
2021/06/28 04:35:29;;;;;;;19.88;3.28;;;38.40;20.40;;;;;;5090517;22;20122;-66
2021/06/28 04:37:58;;;;;;;25.98;3.92;;;38.30;20.50;;;;;;5058627;22;20200;-64
2021/06/28 04:40:28;;;;;;;32.40;4.18;;;38.30;20.40;;;;;;5049170;28;20070;-66
2021/06/28 04:42:55;;;;;;;26.90;4.50;;;38.30;20.60;;;;;;5062696;28;20078;-65
2021/06/28 04:45:22;;;;;;;24.10;5.28;;;38.20;20.70;;;;;;5050389;28;20109;-64
2021/06/28 04:47:50;;;;;;;29.95;5.75;;;38.10;20.60;;;;;;5068378;22;20133;-67
2021/06/28 04:50:21;;;;;;;35.70;6.85;;;38.10;20.50;;;;;;5024629;28;20110;-65
2021/06/28 04:52:51;;;;;;;21.80;6.10;;;38.00;20.10;;;;;;5022242;28;20078;-65
2021/06/28 04:55:17;;;;;;;24.80;6.70;;;38.00;20.40;;;;;;5030079;28;20165;-65
2021/06/28 04:57:45;;;;;;;25.95;6.30;;;38.00;20.30;;;;;;5007250;28;20601;-67
2021/06/28 05:00:15;;;;;;;18.52;6.70;;;37.90;20.30;;;;;;5019856;28;20161;-64
2021/06/28 05:02:44;;;;;;;20.65;5.75;;;37.80;20.50;;;;;;5018788;28;20165;-65
2021/06/28 05:05:12;;;;;;;17.02;5.38;;;37.70;20.60;;;;;;5018259;28;20089;-64
2021/06/28 05:07:39;;;;;;;23.80;4.88;;;37.70;20.50;;;;;;5016089;28;20075;-63
2021/06/28 05:10:07;;;;;;;20.77;4.40;;;37.70;20.70;;;;;;5016673;28;20071;-65
2021/06/28 05:12:33;;;;;;;17.48;4.30;;;37.70;20.50;;;;;;5020958;28;20074;-63
2021/06/28 05:15:04;;;;;;;28.15;4.97;;;37.60;20.50;;;;;;5016603;28;20174;-71
2021/06/28 05:17:34;;;;;;;23.00;4.38;;;37.60;20.70;;;;;;5019371;28;20067;-67
2021/06/28 05:20:01;;;;;;;26.90;4.80;;;38.00;21.00;;;;;;5002662;28;20085;-66
2021/06/28 05:22:28;;;;;;;24.08;4.82;;;38.30;21.10;;;;;;5014041;28;20097;-65
2021/06/28 05:24:54;;;;;;;26.58;5.10;;;38.50;21.20;;;;;;5014283;28;20156;-66
2021/06/28 05:27:21;;;;;;;22.70;4.40;;;38.50;21.10;;;;;;5014519;28;20078;-67
2021/06/28 05:29:54;;;;;;;28.33;4.80;;;38.50;20.90;;;;;;5013479;28;20109;-66
2021/06/28 05:32:23;;;;;;;31.90;4.90;;;38.50;21.50;;;;;;5014677;28;20157;-67
2021/06/28 05:34:59;;;;;;;29.10;5.78;;;38.50;21.60;;;;;;5013126;28;20143;-68
2021/06/28 05:37:28;;;;;;;23.17;4.93;;;38.50;21.20;;;;;;5015179;28;20535;-69
2021/06/28 05:39:54;;;;;;;23.00;5.72;;;38.60;20.90;;;;;;5040562;28;20098;-69
2021/06/28 05:42:21;;;;;;;31.60;6.63;;;38.50;20.50;;;;;;5032314;28;20466;-67
2021/06/28 05:44:47;;;;;;;24.85;6.28;;;38.60;20.80;;;;;;5017416;28;20090;-66
2021/06/28 05:47:16;;;;;;;25.55;5.38;;;38.60;20.70;;;;;;5012998;28;20085;-66
2021/06/28 05:49:44;;;;;;;34.28;6.63;;;38.60;20.90;;;;;;5012821;28;20127;-64
2021/06/28 05:52:14;;;;;;;26.05;6.20;;;38.50;21.20;;;;;;5014603;28;20124;-66
2021/06/28 05:54:44;;;;;;;27.02;5.50;;;38.50;21.30;;;;;;5030109;28;20098;-65
2021/06/28 05:57:10;;;;;;;28.38;6.10;;;38.30;21.10;;;;;;5014247;28;20089;-65
2021/06/28 05:59:37;;;;;;;35.95;5.97;;;38.20;21.40;;;;;;5044387;28;20079;-65
2021/06/28 06:02:04;;;;;;;36.25;5.95;;;38.20;21.60;;;;;;5013860;28;20094;-65
2021/06/28 06:04:30;;;;;;;26.48;4.95;;;38.20;21.80;;;;;;5012946;28;20074;-67
2021/06/28 06:06:58;;;;;;;34.78;5.78;;;38.10;21.90;;;;;;5012050;28;20169;-66
2021/06/28 06:09:25;;;;;;;21.33;4.78;;;38.00;22.20;;;;;;5047738;28;20101;-64
2021/06/28 06:11:51;;;;;;;39.40;5.70;;;37.90;21.70;;;;;;5015217;28;21478;-66
2021/06/28 06:14:18;;;;;;;24.38;5.43;;;37.80;22.00;;;;;;5014984;28;20435;-66
2021/06/28 06:16:44;;;;;;;41.08;6.40;;;37.70;22.40;;;;;;5014106;28;20071;-66
2021/06/28 06:19:12;;;;;;;36.97;6.68;;;37.70;22.80;;;;;;5013413;28;20078;-67
2021/06/28 06:21:38;;;;;;;41.28;7.13;;;37.60;22.70;;;;;;5029551;28;20079;-66
2021/06/28 06:24:05;;;;;;;43.50;7.28;;;37.50;22.70;;;;;;5026343;28;20075;-65
2021/06/28 06:26:32;;;;;;;31.48;7.00;;;37.50;22.40;;;;;;5016748;28;20462;-66
2021/06/28 06:28:58;;;;;;;34.28;7.38;;;37.40;22.30;;;;;;5044612;28;20074;-65
2021/06/28 06:31:25;;;;;;;45.13;7.72;;;37.40;22.70;;;;;;5014607;28;20106;-66
2021/06/28 06:33:51;;;;;;;49.70;7.70;;;37.40;22.90;;;;;;5013711;28;20562;-66
2021/06/28 06:36:18;;;;;;;41.25;7.85;;;37.30;23.00;;;;;;5011456;28;20074;-65
2021/06/28 06:38:45;;;;;;;34.80;7.47;;;37.10;22.90;;;;;;5011002;28;20137;-65
2021/06/28 06:41:12;;;;;;;33.90;8.18;;;37.20;23.00;;;;;;5013330;28;20140;-65
2021/06/28 06:43:38;;;;;;;38.85;8.55;;;37.10;22.70;;;;;;5013555;28;20537;-65
2021/06/28 06:46:05;;;;;;;40.47;7.57;;;37.10;23.00;;;;;;5013609;28;20094;-65
2021/06/28 06:48:31;;;;;;;33.40;8.63;;;37.10;22.90;;;;;;5011545;28;20114;-65
2021/06/28 06:51:03;;;;;;;31.38;7.63;;;37.00;22.80;;;;;;5011192;28;20161;-65
2021/06/28 06:53:29;;;;;;;38.58;8.30;;;37.00;23.10;;;;;;5015753;28;20078;-64
2021/06/28 06:56:05;;;;;;;36.35;7.80;;;37.00;22.90;;;;;;5012952;28;20082;-68
2021/06/28 06:58:35;;;;;;;29.75;8.18;;;36.90;22.80;;;;;;5018366;28;20138;-65
2021/06/28 07:01:03;;;;;;;30.42;8.52;;;36.90;22.60;;;;;;5012886;28;20193;-65
2021/06/28 07:03:32;;;;;;;43.95;10.25;;;36.90;22.90;;;;;;5013916;28;20520;-66
2021/06/28 07:05:59;;;;;;;37.47;11.65;;;36.90;22.90;;;;;;4981012;28;20193;-66
2021/06/28 07:08:28;;;;;;;50.05;15.57;;;36.90;23.20;;;;;;5027417;28;20196;-66
2021/06/28 07:10:56;;;;;;;41.42;11.43;;;36.90;23.10;;;;;;5012214;28;20070;-66
2021/06/28 07:13:22;;;;;;;39.70;11.50;;;36.90;23.10;;;;;;5014177;28;20074;-66
2021/06/28 07:15:49;;;;;;;33.80;8.88;;;36.90;23.60;;;;;;5029189;28;20079;-66
2021/06/28 07:18:15;;;;;;;33.75;9.15;;;36.80;23.50;;;;;;5012846;28;20070;-66
2021/06/28 07:20:43;;;;;;;46.72;9.77;;;36.80;23.00;;;;;;5012425;28;20077;-65
2021/06/28 07:23:09;;;;;;;34.38;8.95;;;36.70;22.90;;;;;;5013914;28;20479;-66
2021/06/28 07:25:37;;;;;;;30.58;8.35;;;36.70;23.40;;;;;;5013911;28;20190;-66
2021/06/28 07:28:09;;;;;;;38.28;9.13;;;36.60;22.90;;;;;;5015850;28;20071;-67
2021/06/28 07:30:40;;;;;;;35.08;7.72;;;36.60;22.60;;;;;;5016385;28;20082;-66
2021/06/28 07:33:07;;;;;;;26.42;7.20;;;36.60;22.50;;;;;;5010913;28;20067;-64
2021/06/28 07:35:33;;;;;;;31.73;6.90;;;36.60;21.70;;;;;;5011852;28;20102;-65
2021/06/28 07:38:00;;;;;;;33.15;6.13;;;36.50;21.20;;;;;;5012692;28;20122;-65
2021/06/28 07:40:29;;;;;;;22.50;5.88;;;36.60;21.70;;;;;;5013935;28;20085;-65
2021/06/28 07:42:56;;;;;;;29.30;6.18;;;36.50;22.10;;;;;;5013681;28;20075;-65
2021/06/28 07:45:23;;;;;;;30.85;5.47;;;36.60;21.70;;;;;;5027466;28;20121;-66
2021/06/28 07:47:50;;;;;;;34.15;5.80;;;36.50;21.00;;;;;;5015410;28;20106;-65
2021/06/28 07:50:20;;;;;;;30.50;5.85;;;36.50;21.20;;;;;;5016290;28;20074;-65
2021/06/28 07:52:47;;;;;;;28.98;5.47;;;36.40;20.80;;;;;;5013468;28;20070;-65
2021/06/28 07:55:14;;;;;;;19.88;5.57;;;36.40;21.30;;;;;;5011815;28;20075;-66
2021/06/28 07:57:42;;;;;;;25.90;5.18;;;36.40;21.40;;;;;;5016251;28;20062;-66
2021/06/28 08:00:11;;;;;;;25.55;6.25;;;36.30;21.10;;;;;;5013097;28;20088;-65
2021/06/28 08:02:38;;;;;;;29.75;5.90;;;36.30;21.20;;;;;;5013020;28;20524;-66
2021/06/28 08:05:06;;;;;;;30.08;5.40;;;36.30;20.90;;;;;;5011364;28;20547;-66
2021/06/28 08:07:33;;;;;;;23.10;5.38;;;36.30;20.60;;;;;;5017587;28;20220;-65
2021/06/28 08:10:00;;;;;;;28.55;4.65;;;36.30;20.70;;;;;;5016844;28;20102;-67
2021/06/28 08:12:26;;;;;;;30.75;4.72;;;36.30;20.70;;;;;;5013347;28;20552;-65
2021/06/28 08:14:53;;;;;;;30.30;5.85;;;36.20;20.50;;;;;;5021375;28;20079;-65
2021/06/28 08:17:19;;;;;;;23.33;5.55;;;36.20;20.80;;;;;;5019557;28;20097;-67
2021/06/28 08:19:47;;;;;;;38.28;6.13;;;36.20;20.80;;;;;;5014610;28;20075;-66
2021/06/28 08:22:15;;;;;;;35.67;6.32;;;36.20;21.20;;;;;;5034083;28;20105;-66
2021/06/28 08:24:42;;;;;;;36.22;5.60;;;36.10;21.10;;;;;;5046368;28;20105;-65
2021/06/28 08:27:09;;;;;;;24.83;4.00;;;36.10;20.90;;;;;;5018763;28;20082;-65
2021/06/28 08:29:36;;;;;;;27.83;3.78;;;36.20;19.70;;;;;;5014759;28;20559;-66
2021/06/28 08:32:03;;;;;;;16.48;4.43;;;36.20;19.70;;;;;;5032320;28;20086;-66
2021/06/28 08:34:31;;;;;;;23.63;4.07;;;36.30;19.90;;;;;;5014107;28;20077;-66
2021/06/28 08:36:58;;;;;;;16.92;4.03;;;36.30;19.90;;;;;;5016716;28;20341;-66
2021/06/28 08:39:25;;;;;;;17.02;3.90;;;36.30;20.40;;;;;;5022785;28;20070;-66
2021/06/28 08:41:53;;;;;;;28.73;4.03;;;36.30;20.20;;;;;;5016921;28;20078;-66
2021/06/28 08:44:20;;;;;;;17.75;4.35;;;36.30;20.50;;;;;;5048562;28;20089;-66
2021/06/28 08:46:46;;;;;;;19.35;4.07;;;36.30;20.40;;;;;;5021294;28;20115;-65
2021/06/28 08:49:13;;;;;;;26.38;4.80;;;36.20;20.80;;;;;;5013762;28;20472;-65
2021/06/28 08:51:41;;;;;;;21.20;4.20;;;36.20;20.90;;;;;;5015296;28;20124;-66
2021/06/28 08:54:12;;;;;;;18.52;3.60;;;36.20;20.80;;;;;;5015087;28;20094;-65
2021/06/28 08:56:41;;;;;;;25.73;3.92;;;36.20;21.10;;;;;;5016940;28;20077;-65
2021/06/28 08:59:08;;;;;;;18.77;4.30;;;36.10;20.70;;;;;;5046003;28;20120;-66
2021/06/28 09:01:36;;;;;;;22.63;4.30;;;36.10;20.80;;;;;;5013931;28;20153;-67
2021/06/28 09:04:04;;;;;;;22.77;4.05;;;36.10;21.10;;;;;;5014934;28;20078;-65
2021/06/28 09:06:31;;;;;;;22.48;4.43;;;36.00;21.00;;;;;;5016140;28;20555;-65
2021/06/28 09:09:03;;;;;;;29.65;4.32;;;35.90;20.90;;;;;;5016109;28;20085;-65
2021/06/28 09:11:41;;;;;;;21.05;4.97;;;35.90;21.10;;;;;;5015565;28;20547;-66
2021/06/28 09:14:10;;;;;;;27.55;4.90;;;35.80;21.30;;;;;;5030094;28;20089;-65
2021/06/28 09:16:39;;;;;;;27.67;5.53;;;35.80;21.30;;;;;;5018852;28;20204;-65
2021/06/28 09:19:17;;;;;;;23.42;5.22;;;35.70;21.40;;;;;;5015697;28;20165;-65
2021/06/28 09:21:49;;;;;;;25.00;5.32;;;35.60;21.80;;;;;;5017749;28;20426;-65
2021/06/28 09:24:37;;;;;;;34.63;6.38;;;35.60;21.80;;;;;;5017967;28;20067;-65
2021/06/28 09:27:13;;;;;;;36.90;8.23;;;35.50;21.90;;;;;;5015288;28;20133;-66
2021/06/28 09:29:43;;;;;;;40.17;9.00;;;35.50;21.00;;;;;;5046390;28;20550;-65
2021/06/28 09:32:15;;;;;;;38.67;8.43;;;35.50;20.40;;;;;;5019002;28;20545;-65
2021/06/28 09:34:45;;;;;;;36.95;8.40;;;35.50;20.60;;;;;;5017257;28;20144;-66
2021/06/28 09:37:26;;;;;;;40.75;7.40;;;35.50;20.70;;;;;;5015774;28;20082;-66
2021/06/28 09:39:57;;;;;;;35.13;6.88;;;35.50;20.50;;;;;;5016109;28;20078;-65
2021/06/28 09:42:27;;;;;;;30.90;5.63;;;35.40;20.80;;;;;;5017264;28;20097;-65
2021/06/28 09:45:14;;;;;;;25.27;5.60;;;35.40;20.50;;;;;;5018253;28;20096;-65
2021/06/28 09:47:41;;;;;;;29.27;5.78;;;35.40;20.50;;;;;;5011518;28;20153;-66
2021/06/28 09:50:20;;;;;;;27.70;5.90;;;35.30;20.80;;;;;;5017083;28;20077;-66
2021/06/28 09:52:59;;;;;;;27.75;6.00;;;35.30;21.40;;;;;;5012406;28;20097;-66
2021/06/28 09:55:39;;;;;;;41.20;5.95;;;35.20;22.10;;;;;;5017190;28;20071;-65
2021/06/28 09:58:25;;;;;;;27.15;4.90;;;35.30;22.20;;;;;;5017114;28;20065;-65
2021/06/28 10:00:56;;;;;;;19.05;4.90;;;35.10;22.30;;;;;;5029591;28;20117;-66
2021/06/28 10:03:31;;;;;;;27.60;5.13;;;35.10;22.40;;;;;;5015579;28;20086;-65
2021/06/28 10:08:37;;;;;;;35.97;4.75;;;34.90;23.20;;;;;;5016885;28;20450;-65
2021/06/28 10:11:17;;;;;;;33.28;4.50;;;34.90;23.30;;;;;;5014736;28;20074;-66
2021/06/28 10:13:51;;;;;;;22.05;4.00;;;34.80;23.40;;;;;;5017144;28;20075;-65
2021/06/28 10:16:19;;;;;;;27.58;4.22;;;34.70;23.00;;;;;;5016390;28;20466;-65
2021/06/28 10:18:46;;;;;;;26.73;3.47;;;34.60;23.00;;;;;;5019795;28;20066;-66
2021/06/28 10:21:13;;;;;;;17.52;2.78;;;34.50;22.90;;;;;;5021412;28;20536;-66
2021/06/28 10:23:41;;;;;;;16.67;2.83;;;34.50;22.70;;;;;;5018661;28;20078;-65
2021/06/28 10:26:08;;;;;;;21.23;3.15;;;34.50;22.70;;;;;;5014925;28;20094;-65
2021/06/28 10:28:36;;;;;;;10.80;2.15;;;34.50;22.60;;;;;;5013987;28;20549;-65
2021/06/28 10:31:04;;;;;;;16.92;2.20;;;34.50;22.70;;;;;;5014372;28;20085;-65
2021/06/28 10:33:32;;;;;;;12.57;2.00;;;34.40;22.30;;;;;;5011576;28;20071;-65
2021/06/28 10:36:12;;;;;;;8.82;1.80;;;34.40;22.10;;;;;;5012063;28;20090;-66
2021/06/28 10:38:55;;;;;;;7.43;2.05;;;34.40;22.00;;;;;;5011233;28;20070;-65
2021/06/28 10:41:44;;;;;;;12.18;2.00;;;34.40;22.20;;;;;;5013399;28;20535;-67
2021/06/28 10:44:13;;;;;;;9.32;2.38;;;34.40;21.60;;;;;;5013409;28;20577;-66
2021/06/28 10:46:42;;;;;;;6.95;2.20;;;34.40;21.40;;;;;;5014037;28;20098;-67
2021/06/28 10:49:09;;;;;;;4.90;1.73;;;34.40;21.40;;;;;;5013910;28;20110;-66
2021/06/28 10:51:42;;;;;;;4.85;1.45;;;34.40;21.80;;;;;;5011188;28;20455;-65
2021/06/28 10:54:11;;;;;;;7.70;1.98;;;34.30;21.90;;;;;;5013327;28;20078;-65
2021/06/28 10:56:38;;;;;;;10.85;1.77;;;34.30;21.90;;;;;;5012620;28;20157;-65
2021/06/28 10:59:07;;;;;;;17.73;1.92;;;34.20;22.10;;;;;;5028495;28;20133;-66
2021/06/28 11:01:39;;;;;;;6.38;2.08;;;34.10;22.40;;;;;;5018190;28;20079;-66
2021/06/28 11:04:10;;;;;;;5.50;1.52;;;34.10;22.60;;;;;;5013553;28;20161;-66
2021/06/28 11:06:38;;;;;;;10.63;1.95;;;34.10;22.50;;;;;;5029669;28;20139;-66
2021/06/28 11:09:09;;;;;;;10.90;2.47;;;34.00;22.30;;;;;;5011582;28;20094;-65
2021/06/28 11:11:45;;;;;;;14.52;3.13;;;33.80;22.40;;;;;;5015819;28;20489;-65
2021/06/28 11:14:18;;;;;;;12.18;2.90;;;33.80;22.70;;;;;;5012973;28;20074;-66
2021/06/28 11:17:08;;;;;;;19.13;3.88;;;33.80;23.00;;;;;;5012859;28;20078;-66
2021/06/28 11:20:03;;;;;;;11.18;2.72;;;33.80;23.00;;;;;;5014825;28;20067;-66
2021/06/28 11:22:52;;;;;;;18.27;3.50;;;33.80;23.30;;;;;;5014884;28;20081;-66
2021/06/28 11:25:22;;;;;;;22.02;3.70;;;33.80;23.30;;;;;;5013150;28;20122;-66
2021/06/28 11:28:09;;;;;;;25.38;3.60;;;33.70;23.80;;;;;;5012639;28;20106;-66
2021/06/28 11:30:44;;;;;;;21.25;4.10;;;33.60;24.20;;;;;;5015782;28;20082;-67
2021/06/28 11:33:13;;;;;;;18.40;3.45;;;33.60;24.10;;;;;;5014740;28;20408;-66
2021/06/28 11:35:53;;;;;;;14.48;3.38;;;33.60;24.10;;;;;;5011215;28;20070;-66
2021/06/28 11:38:28;;;;;;;15.70;3.53;;;33.70;24.10;;;;;;5016278;28;20454;-65
2021/06/28 11:40:59;;;;;;;23.25;3.92;;;33.60;23.90;;;;;;5012744;28;20074;-64
2021/06/28 11:43:49;;;;;;;13.02;2.97;;;33.60;24.20;;;;;;5018804;28;20075;-66
2021/06/28 11:46:27;;;;;;;14.82;3.42;;;33.60;24.70;;;;;;5016266;28;20133;-66
2021/06/28 11:49:03;;;;;;;26.08;4.60;;;33.50;24.60;;;;;;5018044;28;20118;-65
2021/06/28 11:51:31;;;;;;;36.15;7.55;;;33.20;25.80;;;;;;5016246;28;20082;-65
2021/06/28 11:54:16;;;;;;;26.15;7.93;;;33.10;28.10;;;;;;5016016;28;20085;-66
2021/06/28 11:56:47;;;;;;;24.23;8.43;;;32.90;29.00;;;;;;5018545;28;20551;-66
2021/06/28 11:59:15;;;;;;;28.63;8.27;;;33.00;29.00;;;;;;5018185;28;20079;-66
2021/06/28 12:01:59;;;;;;;29.83;7.90;;;32.90;29.20;;;;;;5017400;28;20158;-66
2021/06/28 12:04:32;;;;;;;22.42;7.63;;;32.90;29.00;;;;;;5019676;28;20074;-65
2021/06/28 12:06:59;;;;;;;24.23;7.47;;;33.00;29.20;;;;;;5016763;28;20094;-66
2021/06/28 12:09:40;;;;;;;29.88;8.75;;;32.90;29.70;;;;;;5019314;28;20070;-65
2021/06/28 12:12:15;;;;;;;23.90;7.40;;;32.80;30.20;;;;;;5020706;28;20078;-66
2021/06/28 12:14:52;;;;;;;17.17;7.47;;;32.70;30.60;;;;;;5017668;28;20066;-65
2021/06/28 12:17:21;;;;;;;;;;;32.70;30.40;;;;;;5015463;28;20071;-66
2021/06/28 12:19:49;;;;;;;28.63;8.27;;;32.60;30.90;;;;;;5017632;28;19961;-66
2021/06/28 12:22:24;;;;;;;24.98;8.27;;;32.50;32.00;;;;;;5015678;28;20509;-66
2021/06/28 12:24:57;;;;;;;23.60;8.60;;;32.40;31.80;;;;;;5015541;28;20074;-65
2021/06/28 12:27:31;;;;;;;28.13;8.10;;;32.30;32.30;;;;;;5016044;28;20109;-65
2021/06/28 12:29:59;;;;;;;26.52;8.18;;;32.30;32.50;;;;;;5016690;28;20078;-65
2021/06/28 12:32:35;;;;;;;27.35;8.43;;;32.20;32.70;;;;;;5011846;28;20079;-66
2021/06/28 12:35:07;;;;;;;30.10;8.98;;;32.20;33.00;;;;;;5016609;28;20109;-66
2021/06/28 12:37:34;;;;;;;35.88;8.85;;;32.20;33.20;;;;;;5019253;28;20132;-65
2021/06/28 12:40:18;;;;;;;36.45;8.88;;;32.10;33.40;;;;;;5045870;28;20135;-66
2021/06/28 12:42:48;;;;;;;40.30;9.50;;;32.10;33.60;;;;;;5017888;28;20101;-65
2021/06/28 12:45:18;;;;;;;43.28;11.00;;;32.00;34.50;;;;;;5016508;28;20098;-65
2021/06/28 12:47:50;;;;;;;36.45;10.93;;;31.90;33.90;;;;;;5017190;28;20129;-65
2021/06/28 12:50:20;;;;;;;43.72;12.02;;;31.90;33.90;;;;;;5013551;28;20093;-65
2021/06/28 12:52:48;;;;;;;53.80;12.65;;;31.90;33.80;;;;;;5051786;28;20165;-65
2021/06/28 12:55:41;;;;;;;54.33;14.63;;;31.90;34.00;;;;;;5015967;28;20086;-67